sensor_id;sensor_type;location;lat;lon;timestamp;pressure;altitude;pressure_sealevel;temperature;humidity
56330;BME280;42236;48.058;10.632;2023-02-21T00:01:46;95200.00;;;4.32;73.54
56330;BME280;42236;48.058;10.632;2023-02-21T00:04:50;95188.31;;;4.28;73.77
56330;BME280;42236;48.058;10.632;2023-02-21T00:07:54;95196.16;;;4.19;74.25
56330;BME280;42236;48.058;10.632;2023-02-21T00:10:59;95192.25;;;4.12;74.89
56330;BME280;42236;48.058;10.632;2023-02-21T00:14:03;95189.47;;;3.98;75.12
56330;BME280;42236;48.058;10.632;2023-02-21T00:17:07;95189.31;;;3.89;75.00
56330;BME280;42236;48.058;10.632;2023-02-21T00:20:12;95191.28;;;3.78;75.97
56330;BME280;42236;48.058;10.632;2023-02-21T00:26:58;95179.88;;;3.73;75.38
56330;BME280;42236;48.058;10.632;2023-02-21T00:30:04;95174.88;;;3.66;75.92
56330;BME280;42236;48.058;10.632;2023-02-21T00:33:09;95181.31;;;3.65;76.39
56330;BME280;42236;48.058;10.632;2023-02-21T00:36:16;95180.16;;;3.71;75.91
56330;BME280;42236;48.058;10.632;2023-02-21T00:39:20;95184.38;;;3.77;75.54
56330;BME280;42236;48.058;10.632;2023-02-21T00:42:25;95178.22;;;3.77;74.98
56330;BME280;42236;48.058;10.632;2023-02-21T00:45:29;95176.91;;;3.74;74.89
56330;BME280;42236;48.058;10.632;2023-02-21T00:48:33;95177.22;;;3.73;75.24
56330;BME280;42236;48.058;10.632;2023-02-21T00:51:37;95169.47;;;3.71;74.97
56330;BME280;42236;48.058;10.632;2023-02-21T00:54:42;95170.06;;;3.68;75.03
56330;BME280;42236;48.058;10.632;2023-02-21T00:57:46;95162.91;;;3.63;75.29
56330;BME280;42236;48.058;10.632;2023-02-21T01:00:50;95165.84;;;3.62;75.28
56330;BME280;42236;48.058;10.632;2023-02-21T01:03:57;95159.56;;;3.53;74.85
56330;BME280;42236;48.058;10.632;2023-02-21T01:07:01;95160.72;;;3.41;75.46
56330;BME280;42236;48.058;10.632;2023-02-21T01:10:05;95156.50;;;3.35;75.57
56330;BME280;42236;48.058;10.632;2023-02-21T01:13:10;95146.34;;;3.37;75.72
56330;BME280;42236;48.058;10.632;2023-02-21T01:16:14;95145.31;;;3.38;75.57
56330;BME280;42236;48.058;10.632;2023-02-21T01:19:18;95154.13;;;3.34;75.89
56330;BME280;42236;48.058;10.632;2023-02-21T01:22:23;95157.06;;;3.32;76.06
56330;BME280;42236;48.058;10.632;2023-02-21T01:25:27;95150.19;;;3.26;76.28
56330;BME280;42236;48.058;10.632;2023-02-21T01:28:31;95152.63;;;3.23;76.79
56330;BME280;42236;48.058;10.632;2023-02-21T01:31:35;95148.38;;;3.22;76.76
56330;BME280;42236;48.058;10.632;2023-02-21T01:34:39;95135.84;;;3.22;76.63
56330;BME280;42236;48.058;10.632;2023-02-21T01:37:43;95135.84;;;3.22;76.73
56330;BME280;42236;48.058;10.632;2023-02-21T01:40:48;95130.06;;;3.15;76.16
56330;BME280;42236;48.058;10.632;2023-02-21T01:44:02;95120.50;;;3.09;76.52
56330;BME280;42236;48.058;10.632;2023-02-21T01:47:10;95116.56;;;3.01;76.91
56330;BME280;42236;48.058;10.632;2023-02-21T01:53:25;95111.03;;;2.97;77.09
56330;BME280;42236;48.058;10.632;2023-02-21T01:56:30;95109.19;;;2.93;77.67
56330;BME280;42236;48.058;10.632;2023-02-21T01:59:35;95104.41;;;2.90;78.03
56330;BME280;42236;48.058;10.632;2023-02-21T02:02:56;95096.19;;;2.86;78.67
56330;BME280;42236;48.058;10.632;2023-02-21T02:06:07;95091.97;;;2.80;79.27
56330;BME280;42236;48.058;10.632;2023-02-21T02:09:17;95098.94;;;2.76;79.89
56330;BME280;42236;48.058;10.632;2023-02-21T02:15:47;95096.03;;;2.72;80.14
56330;BME280;42236;48.058;10.632;2023-02-21T02:18:58;95098.44;;;2.74;80.05
56330;BME280;42236;48.058;10.632;2023-02-21T02:22:07;95095.25;;;2.72;80.37
56330;BME280;42236;48.058;10.632;2023-02-21T02:43:24;95081.97;;;2.67;80.40
56330;BME280;42236;48.058;10.632;2023-02-21T02:46:21;95080.34;;;2.66;80.21
56330;BME280;42236;48.058;10.632;2023-02-21T02:49:13;95081.44;;;2.65;81.02
56330;BME280;42236;48.058;10.632;2023-02-21T02:52:05;95075.59;;;2.63;81.15
56330;BME280;42236;48.058;10.632;2023-02-21T02:55:03;95083.06;;;2.61;80.61
56330;BME280;42236;48.058;10.632;2023-02-21T02:57:50;95082.28;;;2.60;79.27
56330;BME280;42236;48.058;10.632;2023-02-21T03:00:39;95087.38;;;2.56;80.74
56330;BME280;42236;48.058;10.632;2023-02-21T03:03:44;95087.38;;;2.56;81.08
56330;BME280;42236;48.058;10.632;2023-02-21T03:09:47;95079.91;;;2.59;81.07
56330;BME280;42236;48.058;10.632;2023-02-21T03:18:39;95084.19;;;2.54;79.93
56330;BME280;42236;48.058;10.632;2023-02-21T03:21:31;95077.81;;;2.50;81.06
56330;BME280;42236;48.058;10.632;2023-02-21T03:24:20;95085.59;;;2.47;80.54
56330;BME280;42236;48.058;10.632;2023-02-21T03:27:07;95080.00;;;2.43;79.98
56330;BME280;42236;48.058;10.632;2023-02-21T03:29:55;95084.28;;;2.39;80.41
56330;BME280;42236;48.058;10.632;2023-02-21T03:32:45;95085.16;;;2.34;80.35
56330;BME280;42236;48.058;10.632;2023-02-21T03:35:32;95082.50;;;2.29;80.88
56330;BME280;42236;48.058;10.632;2023-02-21T03:38:18;95079.88;;;2.24;80.56
56330;BME280;42236;48.058;10.632;2023-02-21T03:41:05;95078.59;;;2.17;81.05
56330;BME280;42236;48.058;10.632;2023-02-21T03:43:51;95074.88;;;2.12;80.62
56330;BME280;42236;48.058;10.632;2023-02-21T03:46:36;95086.09;;;2.09;80.61
56330;BME280;42236;48.058;10.632;2023-02-21T03:49:22;95082.63;;;2.09;80.58
56330;BME280;42236;48.058;10.632;2023-02-21T03:52:10;95072.78;;;2.09;80.39
56330;BME280;42236;48.058;10.632;2023-02-21T03:54:57;95071.28;;;1.98;80.42
56330;BME280;42236;48.058;10.632;2023-02-21T03:57:42;95075.28;;;1.90;80.58
56330;BME280;42236;48.058;10.632;2023-02-21T04:00:28;95078.53;;;1.82;80.90
56330;BME280;42236;48.058;10.632;2023-02-21T04:03:14;95082.56;;;1.75;81.10
56330;BME280;42236;48.058;10.632;2023-02-21T04:05:59;95079.94;;;1.69;81.42
56330;BME280;42236;48.058;10.632;2023-02-21T04:08:45;95083.63;;;1.68;81.49
56330;BME280;42236;48.058;10.632;2023-02-21T04:11:31;95074.63;;;1.64;81.96
56330;BME280;42236;48.058;10.632;2023-02-21T04:14:16;95082.09;;;1.57;81.84
56330;BME280;42236;48.058;10.632;2023-02-21T04:17:02;95078.41;;;1.53;81.63
56330;BME280;42236;48.058;10.632;2023-02-21T04:19:47;95082.41;;;1.45;81.60
56330;BME280;42236;48.058;10.632;2023-02-21T04:22:33;95076.84;;;1.37;82.39
56330;BME280;42236;48.058;10.632;2023-02-21T04:25:19;95086.16;;;1.34;81.95
56330;BME280;42236;48.058;10.632;2023-02-21T04:28:04;95079.53;;;1.32;82.01
56330;BME280;42236;48.058;10.632;2023-02-21T04:30:50;95077.94;;;1.31;82.20
56330;BME280;42236;48.058;10.632;2023-02-21T04:33:36;95090.72;;;1.28;82.33
56330;BME280;42236;48.058;10.632;2023-02-21T04:36:21;95087.53;;;1.26;82.69
56330;BME280;42236;48.058;10.632;2023-02-21T04:39:07;95087.25;;;1.23;82.29
56330;BME280;42236;48.058;10.632;2023-02-21T04:41:53;95087.00;;;1.19;82.94
56330;BME280;42236;48.058;10.632;2023-02-21T04:44:39;95081.41;;;1.16;82.46
56330;BME280;42236;48.058;10.632;2023-02-21T04:47:24;95085.94;;;1.15;82.82
56330;BME280;42236;48.058;10.632;2023-02-21T04:50:10;95085.41;;;1.13;82.66
56330;BME280;42236;48.058;10.632;2023-02-21T04:52:56;95085.41;;;1.13;82.51
56330;BME280;42236;48.058;10.632;2023-02-21T04:55:41;95086.50;;;1.12;83.32
56330;BME280;42236;48.058;10.632;2023-02-21T04:58:27;95087.03;;;1.09;83.45
56330;BME280;42236;48.058;10.632;2023-02-21T05:01:14;95082.25;;;1.06;83.62
56330;BME280;42236;48.058;10.632;2023-02-21T05:04:00;95091.03;;;1.06;83.35
56330;BME280;42236;48.058;10.632;2023-02-21T05:06:46;95090.75;;;1.03;83.67
56330;BME280;42236;48.058;10.632;2023-02-21T05:09:31;95087.03;;;0.99;83.64
56330;BME280;42236;48.058;10.632;2023-02-21T05:12:17;95081.47;;;0.95;83.47
56330;BME280;42236;48.058;10.632;2023-02-21T05:15:03;95086.50;;;0.92;83.62
56330;BME280;42236;48.058;10.632;2023-02-21T05:17:49;95076.44;;;0.89;84.44
56330;BME280;42236;48.058;10.632;2023-02-21T05:20:34;95071.66;;;0.85;83.97
56330;BME280;42236;48.058;10.632;2023-02-21T05:23:20;95067.94;;;0.81;84.35
56330;BME280;42236;48.058;10.632;2023-02-21T05:26:18;95065.84;;;0.78;83.82
56330;BME280;42236;48.058;10.632;2023-02-21T05:29:04;95069.53;;;0.77;83.82
56330;BME280;42236;48.058;10.632;2023-02-21T05:31:49;95056.53;;;0.76;83.93
56330;BME280;42236;48.058;10.632;2023-02-21T05:34:35;95059.47;;;0.74;83.59
56330;BME280;42236;48.058;10.632;2023-02-21T05:37:21;95055.47;;;0.72;83.57
56330;BME280;42236;48.058;10.632;2023-02-21T05:40:09;95059.22;;;0.66;83.96
56330;BME280;42236;48.058;10.632;2023-02-21T05:42:56;95056.28;;;0.62;84.34
56330;BME280;42236;48.058;10.632;2023-02-21T05:45:41;95055.22;;;0.58;84.50
56330;BME280;42236;48.058;10.632;2023-02-21T05:48:27;95060.53;;;0.53;84.78
56330;BME280;42236;48.058;10.632;2023-02-21T05:51:14;95057.88;;;0.53;84.16
56330;BME280;42236;48.058;10.632;2023-02-21T05:53:59;95059.22;;;0.50;84.73
56330;BME280;42236;48.058;10.632;2023-02-21T05:56:46;95066.63;;;0.48;84.95
56330;BME280;42236;48.058;10.632;2023-02-21T05:59:32;95065.84;;;0.48;84.93
56330;BME280;42236;48.058;10.632;2023-02-21T06:02:18;95060.53;;;0.48;85.57
56330;BME280;42236;48.058;10.632;2023-02-21T06:05:04;95061.06;;;0.50;85.82
56330;BME280;42236;48.058;10.632;2023-02-21T06:07:50;95066.91;;;0.52;85.75
56330;BME280;42236;48.058;10.632;2023-02-21T06:10:35;95062.16;;;0.54;86.02
56330;BME280;42236;48.058;10.632;2023-02-21T06:13:21;95066.38;;;0.55;86.13
56330;BME280;42236;48.058;10.632;2023-02-21T06:16:07;95069.31;;;0.58;85.23
56330;BME280;42236;48.058;10.632;2023-02-21T06:18:54;95062.94;;;0.59;85.43
56330;BME280;42236;48.058;10.632;2023-02-21T06:21:41;95066.91;;;0.62;85.26
56330;BME280;42236;48.058;10.632;2023-02-21T06:24:27;95063.47;;;0.67;85.10
56330;BME280;42236;48.058;10.632;2023-02-21T06:27:12;95065.56;;;0.70;85.38
56330;BME280;42236;48.058;10.632;2023-02-21T06:30:00;95064.22;;;0.72;84.74
56330;BME280;42236;48.058;10.632;2023-02-21T06:32:46;95071.69;;;0.75;85.35
56330;BME280;42236;48.058;10.632;2023-02-21T06:35:31;95065.56;;;0.75;85.52
56330;BME280;42236;48.058;10.632;2023-02-21T06:38:17;95064.22;;;0.77;85.23
56330;BME280;42236;48.058;10.632;2023-02-21T06:41:07;95069.03;;;0.80;85.46
56330;BME280;42236;48.058;10.632;2023-02-21T06:43:53;95068.47;;;0.83;84.80
56330;BME280;42236;48.058;10.632;2023-02-21T06:46:39;95073.78;;;0.89;84.53
56330;BME280;42236;48.058;10.632;2023-02-21T06:49:25;95083.59;;;0.93;84.84
56330;BME280;42236;48.058;10.632;2023-02-21T06:52:10;95076.16;;;0.95;84.96
56330;BME280;42236;48.058;10.632;2023-02-21T06:54:56;95083.88;;;1.02;84.97
56330;BME280;42236;48.058;10.632;2023-02-21T06:57:42;95077.47;;;1.08;85.56
56330;BME280;42236;48.058;10.632;2023-02-21T07:00:27;95078.50;;;1.17;84.94
56330;BME280;42236;48.058;10.632;2023-02-21T07:03:13;95080.59;;;1.25;84.86
56330;BME280;42236;48.058;10.632;2023-02-21T07:05:59;95078.44;;;1.33;84.89
56330;BME280;42236;48.058;10.632;2023-02-21T07:08:44;95090.91;;;1.42;85.14
56330;BME280;42236;48.058;10.632;2023-02-21T07:11:31;95085.59;;;1.53;84.68
56330;BME280;42236;48.058;10.632;2023-02-21T07:14:17;95083.44;;;1.60;84.49
56330;BME280;42236;48.058;10.632;2023-02-21T07:17:03;95090.56;;;1.69;84.27
56330;BME280;42236;48.058;10.632;2023-02-21T07:19:49;95084.13;;;1.76;85.24
56330;BME280;42236;48.058;10.632;2023-02-21T07:22:34;95090.47;;;1.85;84.44
56330;BME280;42236;48.058;10.632;2023-02-21T07:25:21;95089.41;;;1.91;85.00
56330;BME280;42236;48.058;10.632;2023-02-21T07:28:07;95088.03;;;1.99;84.83
56330;BME280;42236;48.058;10.632;2023-02-21T07:30:52;95090.63;;;2.09;85.22
56330;BME280;42236;48.058;10.632;2023-02-21T07:33:38;95081.78;;;2.19;85.37
56330;BME280;42236;48.058;10.632;2023-02-21T07:36:24;95084.09;;;2.30;85.88
56330;BME280;42236;48.058;10.632;2023-02-21T07:39:10;95081.88;;;2.43;85.05
56330;BME280;42236;48.058;10.632;2023-02-21T07:41:56;95085.78;;;2.55;85.13
56330;BME280;42236;48.058;10.632;2023-02-21T07:44:42;95081.41;;;2.70;84.99
56330;BME280;42236;48.058;10.632;2023-02-21T07:47:28;95077.81;;;2.85;85.17
56330;BME280;42236;48.058;10.632;2023-02-21T07:50:14;95077.94;;;2.98;84.41
56330;BME280;42236;48.058;10.632;2023-02-21T07:53:00;95073.56;;;3.13;84.66
56330;BME280;42236;48.058;10.632;2023-02-21T07:55:46;95071.53;;;3.29;84.80
56330;BME280;42236;48.058;10.632;2023-02-21T07:58:31;95077.47;;;3.45;84.08
56330;BME280;42236;48.058;10.632;2023-02-21T08:01:23;95076.75;;;3.63;83.41
56330;BME280;42236;48.058;10.632;2023-02-21T08:04:09;95069.56;;;3.82;83.76
56330;BME280;42236;48.058;10.632;2023-02-21T08:07:02;95063.44;;;4.01;83.30
56330;BME280;42236;48.058;10.632;2023-02-21T08:09:48;95062.94;;;4.18;82.12
56330;BME280;42236;48.058;10.632;2023-02-21T08:12:34;95073.09;;;4.35;81.89
56330;BME280;42236;48.058;10.632;2023-02-21T08:15:20;95064.88;;;4.50;81.76
56330;BME280;42236;48.058;10.632;2023-02-21T08:18:17;95060.88;;;4.66;81.71
56330;BME280;42236;48.058;10.632;2023-02-21T08:21:10;95063.50;;;4.85;81.77
56330;BME280;42236;48.058;10.632;2023-02-21T08:23:56;95061.13;;;4.98;81.37
56330;BME280;42236;48.058;10.632;2023-02-21T08:26:42;95066.25;;;5.13;80.62
56330;BME280;42236;48.058;10.632;2023-02-21T08:29:29;95075.06;;;5.27;79.60
56330;BME280;42236;48.058;10.632;2023-02-21T08:32:16;95073.50;;;5.40;79.16
56330;BME280;42236;48.058;10.632;2023-02-21T08:35:03;95066.56;;;5.53;78.59
56330;BME280;42236;48.058;10.632;2023-02-21T08:37:50;95075.19;;;5.64;78.49
56330;BME280;42236;48.058;10.632;2023-02-21T08:40:36;95077.06;;;5.77;78.24
56330;BME280;42236;48.058;10.632;2023-02-21T08:43:23;95081.00;;;5.93;77.65
56330;BME280;42236;48.058;10.632;2023-02-21T08:46:08;95080.03;;;6.17;77.20
56330;BME280;42236;48.058;10.632;2023-02-21T08:48:54;95090.28;;;6.37;76.37
56330;BME280;42236;48.058;10.632;2023-02-21T08:51:41;95084.75;;;6.56;75.09
56330;BME280;42236;48.058;10.632;2023-02-21T08:54:27;95086.41;;;6.66;75.25
56330;BME280;42236;48.058;10.632;2023-02-21T08:57:13;95083.81;;;6.75;74.35
56330;BME280;42236;48.058;10.632;2023-02-21T08:59:59;95087.34;;;6.84;74.17
56330;BME280;42236;48.058;10.632;2023-02-21T09:02:45;95084.41;;;6.94;73.74
56330;BME280;42236;48.058;10.632;2023-02-21T09:05:32;95085.06;;;7.00;73.95
56330;BME280;42236;48.058;10.632;2023-02-21T09:08:17;95074.19;;;7.05;73.92
56330;BME280;42236;48.058;10.632;2023-02-21T09:11:06;95078.84;;;7.13;73.58
56330;BME280;42236;48.058;10.632;2023-02-21T09:13:52;95082.97;;;7.19;73.28
56330;BME280;42236;48.058;10.632;2023-02-21T09:16:39;95087.13;;;7.25;73.15
56330;BME280;42236;48.058;10.632;2023-02-21T09:19:25;95085.28;;;7.35;72.75
56330;BME280;42236;48.058;10.632;2023-02-21T09:22:11;95080.94;;;7.56;71.88
56330;BME280;42236;48.058;10.632;2023-02-21T09:24:57;95090.16;;;7.73;71.79
56330;BME280;42236;48.058;10.632;2023-02-21T09:27:43;95083.88;;;7.86;70.47
56330;BME280;42236;48.058;10.632;2023-02-21T09:30:29;95080.13;;;7.96;70.33
56330;BME280;42236;48.058;10.632;2023-02-21T09:33:15;95080.94;;;8.05;70.30
56330;BME280;42236;48.058;10.632;2023-02-21T09:36:01;95078.91;;;8.19;69.71
56330;BME280;42236;48.058;10.632;2023-02-21T09:38:46;95080.19;;;8.39;69.40
56330;BME280;42236;48.058;10.632;2023-02-21T09:41:34;95079.44;;;8.56;68.91
56330;BME280;42236;48.058;10.632;2023-02-21T09:44:23;95078.16;;;8.71;67.77
56330;BME280;42236;48.058;10.632;2023-02-21T09:47:30;95072.00;;;8.79;66.64
56330;BME280;42236;48.058;10.632;2023-02-21T09:50:20;95069.28;;;8.88;67.29
56330;BME280;42236;48.058;10.632;2023-02-21T09:53:07;95073.25;;;8.90;67.38
56330;BME280;42236;48.058;10.632;2023-02-21T09:56:03;95075.00;;;8.95;66.89
56330;BME280;42236;48.058;10.632;2023-02-21T09:58:49;95077.69;;;9.04;67.01
56330;BME280;42236;48.058;10.632;2023-02-21T10:01:54;95078.13;;;9.14;66.51
56330;BME280;42236;48.058;10.632;2023-02-21T10:07:59;95086.44;;;9.48;65.25
56330;BME280;42236;48.058;10.632;2023-02-21T10:11:00;95076.09;;;9.58;64.30
56330;BME280;42236;48.058;10.632;2023-02-21T10:14:05;95078.25;;;9.74;62.24
56330;BME280;42236;48.058;10.632;2023-02-21T10:17:22;95076.25;;;9.92;59.72
56330;BME280;42236;48.058;10.632;2023-02-21T10:20:22;95076.34;;;10.04;63.05
56330;BME280;42236;48.058;10.632;2023-02-21T10:23:18;95085.25;;;10.25;61.93
56330;BME280;42236;48.058;10.632;2023-02-21T10:26:10;95081.38;;;10.44;61.55
56330;BME280;42236;48.058;10.632;2023-02-21T10:28:58;95079.78;;;10.64;60.89
56330;BME280;42236;48.058;10.632;2023-02-21T10:31:45;95071.44;;;10.78;60.50
56330;BME280;42236;48.058;10.632;2023-02-21T10:34:46;95074.19;;;10.90;57.15
56330;BME280;42236;48.058;10.632;2023-02-21T10:37:37;95079.84;;;10.97;58.72
56330;BME280;42236;48.058;10.632;2023-02-21T10:40:33;95080.19;;;11.08;58.23
56330;BME280;42236;48.058;10.632;2023-02-21T10:43:53;95075.84;;;11.16;56.17
56330;BME280;42236;48.058;10.632;2023-02-21T10:46:47;95074.75;;;11.29;56.02
56330;BME280;42236;48.058;10.632;2023-02-21T10:53:30;95073.25;;;11.52;55.36
56330;BME280;42236;48.058;10.632;2023-02-21T10:59:08;95065.03;;;11.61;55.85
56330;BME280;42236;48.058;10.632;2023-02-21T11:02:30;95056.59;;;11.63;54.42
56330;BME280;42236;48.058;10.632;2023-02-21T11:05:19;95060.19;;;11.67;54.95
56330;BME280;42236;48.058;10.632;2023-02-21T11:08:09;95062.69;;;11.72;55.22
56330;BME280;42236;48.058;10.632;2023-02-21T11:10:56;95047.81;;;11.78;54.73
56330;BME280;42236;48.058;10.632;2023-02-21T11:13:42;95052.53;;;11.81;54.87
56330;BME280;42236;48.058;10.632;2023-02-21T11:20:35;95039.94;;;11.98;50.46
56330;BME280;42236;48.058;10.632;2023-02-21T11:23:48;95037.91;;;12.07;52.47
56330;BME280;42236;48.058;10.632;2023-02-21T11:34:03;95014.66;;;12.30;52.27
56330;BME280;42236;48.058;10.632;2023-02-21T11:36:52;95008.09;;;12.44;53.12
56330;BME280;42236;48.058;10.632;2023-02-21T11:40:03;95004.00;;;12.50;51.28
56330;BME280;42236;48.058;10.632;2023-02-21T11:46:45;94996.31;;;12.64;50.36
56330;BME280;42236;48.058;10.632;2023-02-21T11:50:09;94988.56;;;12.78;49.33
56330;BME280;42236;48.058;10.632;2023-02-21T12:20:07;94956.88;;;13.39;47.60
56330;BME280;42236;48.058;10.632;2023-02-21T13:00:46;94890.28;;;13.73;43.71
56330;BME280;42236;48.058;10.632;2023-02-21T13:13:58;94868.78;;;13.84;46.00
56330;BME280;42236;48.058;10.632;2023-02-21T13:17:16;94863.31;;;13.80;44.72
56330;BME280;42236;48.058;10.632;2023-02-21T13:27:47;94847.47;;;13.82;44.43
56330;BME280;42236;48.058;10.632;2023-02-21T13:31:17;94850.19;;;13.82;46.08
56330;BME280;42236;48.058;10.632;2023-02-21T13:38:05;94834.56;;;13.95;44.43
56330;BME280;42236;48.058;10.632;2023-02-21T13:55:28;94803.94;;;14.14;45.45
56330;BME280;42236;48.058;10.632;2023-02-21T14:02:31;94803.53;;;14.16;43.15
56330;BME280;42236;48.058;10.632;2023-02-21T14:06:33;94796.50;;;14.11;42.09
56330;BME280;42236;48.058;10.632;2023-02-21T14:09:19;94796.13;;;14.13;45.97
56330;BME280;42236;48.058;10.632;2023-02-21T14:12:08;94790.72;;;14.13;45.69
56330;BME280;42236;48.058;10.632;2023-02-21T14:15:12;94790.72;;;14.13;45.89
56330;BME280;42236;48.058;10.632;2023-02-21T14:21:50;94781.63;;;14.24;43.64
56330;BME280;42236;48.058;10.632;2023-02-21T14:28:59;94778.69;;;14.33;43.53
56330;BME280;42236;48.058;10.632;2023-02-21T14:32:21;94772.09;;;14.34;43.91
56330;BME280;42236;48.058;10.632;2023-02-21T14:43:20;94766.84;;;14.22;43.70
56330;BME280;42236;48.058;10.632;2023-02-21T15:15:53;94723.97;;;14.08;44.26
56330;BME280;42236;48.058;10.632;2023-02-21T15:30:39;94714.00;;;14.16;43.60
56330;BME280;42236;48.058;10.632;2023-02-21T16:04:12;94693.38;;;13.88;44.83
56330;BME280;42236;48.058;10.632;2023-02-21T16:07:01;94690.97;;;13.83;46.39
56330;BME280;42236;48.058;10.632;2023-02-21T16:10:07;94697.81;;;13.77;45.46
56330;BME280;42236;48.058;10.632;2023-02-21T16:12:56;94690.41;;;13.74;46.58
56330;BME280;42236;48.058;10.632;2023-02-21T16:16:02;94691.44;;;13.65;44.72
56330;BME280;42236;48.058;10.632;2023-02-21T16:29:12;94686.31;;;13.41;47.39
56330;BME280;42236;48.058;10.632;2023-02-21T16:40:40;94688.94;;;13.02;46.33
56330;BME280;42236;48.058;10.632;2023-02-21T16:43:25;94690.72;;;12.94;48.00
56330;BME280;42236;48.058;10.632;2023-02-21T16:46:45;94686.63;;;12.85;47.28
56330;BME280;42236;48.058;10.632;2023-02-21T16:49:33;94687.19;;;12.74;48.31
56330;BME280;42236;48.058;10.632;2023-02-21T16:52:19;94685.88;;;12.68;49.07
56330;BME280;42236;48.058;10.632;2023-02-21T16:55:15;94682.94;;;12.57;49.32
56330;BME280;42236;48.058;10.632;2023-02-21T16:58:19;94676.50;;;12.46;49.22
56330;BME280;42236;48.058;10.632;2023-02-21T17:01:22;94676.25;;;12.35;49.23
56330;BME280;42236;48.058;10.632;2023-02-21T17:04:23;94676.34;;;12.23;49.58
56330;BME280;42236;48.058;10.632;2023-02-21T17:07:11;94668.34;;;12.11;50.48
56330;BME280;42236;48.058;10.632;2023-02-21T17:09:59;94673.81;;;11.99;50.86
56330;BME280;42236;48.058;10.632;2023-02-21T17:12:48;94675.00;;;11.85;51.35
56330;BME280;42236;48.058;10.632;2023-02-21T17:15:34;94677.84;;;11.77;51.54
56330;BME280;42236;48.058;10.632;2023-02-21T17:21:22;94675.38;;;11.56;51.78
56330;BME280;42236;48.058;10.632;2023-02-21T17:24:19;94674.75;;;11.46;51.85
56330;BME280;42236;48.058;10.632;2023-02-21T17:27:18;94672.19;;;11.38;52.32
56330;BME280;42236;48.058;10.632;2023-02-21T17:30:05;94680.44;;;11.29;52.53
56330;BME280;42236;48.058;10.632;2023-02-21T17:32:51;94686.34;;;11.19;52.82
56330;BME280;42236;48.058;10.632;2023-02-21T17:35:46;94689.50;;;11.08;52.94
56330;BME280;42236;48.058;10.632;2023-02-21T17:38:32;94695.84;;;11.00;53.36
56330;BME280;42236;48.058;10.632;2023-02-21T17:41:18;94695.19;;;10.91;53.61
56330;BME280;42236;48.058;10.632;2023-02-21T17:44:07;94695.41;;;10.86;53.71
56330;BME280;42236;48.058;10.632;2023-02-21T17:46:55;94695.97;;;10.79;53.98
56330;BME280;42236;48.058;10.632;2023-02-21T17:49:47;94701.94;;;10.73;54.22
56330;BME280;42236;48.058;10.632;2023-02-21T17:52:33;94695.66;;;10.68;54.34
56330;BME280;42236;48.058;10.632;2023-02-21T17:55:21;94703.31;;;10.66;54.30
56330;BME280;42236;48.058;10.632;2023-02-21T17:58:13;94704.78;;;10.64;54.50
56330;BME280;42236;48.058;10.632;2023-02-21T18:00:59;94704.56;;;10.57;54.67
56330;BME280;42236;48.058;10.632;2023-02-21T18:03:46;94695.91;;;10.51;54.86
56330;BME280;42236;48.058;10.632;2023-02-21T18:06:38;94704.88;;;10.43;55.06
56330;BME280;42236;48.058;10.632;2023-02-21T18:09:24;94698.00;;;10.21;55.01
56330;BME280;42236;48.058;10.632;2023-02-21T18:12:10;94702.47;;;9.59;56.50
56330;BME280;42236;48.058;10.632;2023-02-21T18:14:55;94704.13;;;9.18;57.54
56330;BME280;42236;48.058;10.632;2023-02-21T18:17:41;94703.41;;;9.09;57.90
56330;BME280;42236;48.058;10.632;2023-02-21T18:20:27;94708.81;;;9.09;58.11
56330;BME280;42236;48.058;10.632;2023-02-21T18:23:12;94703.28;;;9.05;58.24
56330;BME280;42236;48.058;10.632;2023-02-21T18:26:00;94700.78;;;9.00;58.33
56330;BME280;42236;48.058;10.632;2023-02-21T18:28:47;94697.06;;;8.92;58.37
56330;BME280;42236;48.058;10.632;2023-02-21T18:31:33;94703.72;;;8.86;58.90
56330;BME280;42236;48.058;10.632;2023-02-21T18:34:19;94693.16;;;8.81;59.09
56330;BME280;42236;48.058;10.632;2023-02-21T18:37:05;94696.53;;;8.78;59.18
56330;BME280;42236;48.058;10.632;2023-02-21T18:39:53;94691.19;;;8.69;59.54
56330;BME280;42236;48.058;10.632;2023-02-21T18:42:40;94688.56;;;8.61;59.68
56330;BME280;42236;48.058;10.632;2023-02-21T18:45:26;94689.84;;;8.54;60.21
56330;BME280;42236;48.058;10.632;2023-02-21T18:48:12;94685.81;;;8.48;60.10
56330;BME280;42236;48.058;10.632;2023-02-21T18:50:58;94684.72;;;8.41;60.53
56330;BME280;42236;48.058;10.632;2023-02-21T18:53:44;94689.78;;;8.33;60.58
56330;BME280;42236;48.058;10.632;2023-02-21T18:56:30;94685.72;;;8.27;60.83
56330;BME280;42236;48.058;10.632;2023-02-21T18:59:17;94693.19;;;8.22;60.93
56330;BME280;42236;48.058;10.632;2023-02-21T19:02:04;94689.59;;;8.09;61.30
56330;BME280;42236;48.058;10.632;2023-02-21T19:04:51;94687.44;;;8.02;61.80
56330;BME280;42236;48.058;10.632;2023-02-21T19:07:36;94685.22;;;7.96;61.77
56330;BME280;42236;48.058;10.632;2023-02-21T19:10:23;94682.38;;;7.92;61.88
56330;BME280;42236;48.058;10.632;2023-02-21T19:13:09;94686.50;;;7.89;62.15
56330;BME280;42236;48.058;10.632;2023-02-21T19:15:55;94682.09;;;7.85;62.32
56330;BME280;42236;48.058;10.632;2023-02-21T19:18:40;94684.03;;;7.76;62.38
56330;BME280;42236;48.058;10.632;2023-02-21T19:21:26;94689.75;;;7.65;62.63
56330;BME280;42236;48.058;10.632;2023-02-21T19:24:12;94683.16;;;7.54;62.75
56330;BME280;42236;48.058;10.632;2023-02-21T19:26:57;94686.97;;;7.44;63.06
56330;BME280;42236;48.058;10.632;2023-02-21T19:29:43;94679.69;;;7.36;63.43
56330;BME280;42236;48.058;10.632;2023-02-21T19:32:32;94686.03;;;7.32;63.73
56330;BME280;42236;48.058;10.632;2023-02-21T19:35:20;94690.78;;;7.26;63.60
56330;BME280;42236;48.058;10.632;2023-02-21T19:38:07;94686.53;;;7.16;63.92
56330;BME280;42236;48.058;10.632;2023-02-21T19:40:53;94693.31;;;7.05;64.37
56330;BME280;42236;48.058;10.632;2023-02-21T19:43:38;94695.66;;;6.98;64.72
56330;BME280;42236;48.058;10.632;2023-02-21T19:46:26;94687.78;;;6.93;64.97